Terminal Aerodrome Forecast
Issued by NWS

Home | Current Version | Previous Version | Text Only | Print | Product List | Glossary On
Versions: 1 2 3 4 5 6 7 8 9 10
000
FTUS43 KTOP 241700
TAFMHK
TAF
KMHK 241728Z 2418/2518 31010KT P6SM OVC016
     FM242100 27007KT P6SM BKN025
     FM250000 21007KT P6SM SKC
     FM251200 20012KT P6SM SKC=

USA.gov is the U.S. government's official web portal to all federal, state and local government web resources and services.